»·PEaware :: CGBVT CYCD-KOLM

CGBVT :: CYCD-KOLM

FLIGHT INFORMATION

Flight Status: Arrived
Operator: Unknown
More flights by this operator :: More flights under this callsign
Pilot: Maurice C. (12314)
Aircraft: CESSNA 172 SKYHAWK
(C172)
More flights by this aircraft type
Origin: CYCD Nanaimo
Canada
Destination: KOLM Olympia
United States
More flights between these airports :: More routes between these airports
Route: +
File this flight plan on PilotEdge
Remarks:
Altitude:
(Current/Filed)
9,500ft
Speed:
(Current/Filed)
120kts
Departed: 23-Jun-17 01:04 PM
Arrived: 23-Jun-17 02:28 PM
Distance/Time
Traveled:
130nm/1:24
Distance/Time
To Go:
Arrived

Flight Plot

Page will automatically refresh every two minutes.

Flight plan parsing failed; only flown route is shown


Map Options




Map Legend


Flown Route
Filed Route
Departure Airport
Arrival Airport
Navaid (VOR, NDB)
Fix

Horizontal Profiles

Position Reports

Time Latitude Longitude Heading Altitude Ground
Speed
23-Jun-17 13:00 49.047263 -123.873305 356 92ft 0kts
23-Jun-17 13:01 49.047262 -123.873305 356 92ft 0kts
23-Jun-17 13:02 49.047262 -123.873305 356 92ft 0kts
23-Jun-17 13:03 49.047262 -123.873305 356 92ft 0kts
23-Jun-17 13:04 49.047460 -123.873057 92 92ft 6kts
23-Jun-17 13:05 49.046028 -123.871559 133 92ft 1kts
23-Jun-17 13:06 49.048271 -123.870262 1 92ft 40kts
23-Jun-17 13:07 49.069703 -123.870888 357 772ft 84kts
23-Jun-17 13:08 49.090912 -123.885058 322 1607ft 94kts
23-Jun-17 13:09 49.112490 -123.908092 329 2320ft 95kts
23-Jun-17 13:10 49.133288 -123.932831 325 3037ft 94kts
23-Jun-17 13:11 49.148389 -123.964507 298 3729ft 96kts
23-Jun-17 13:12 49.158860 -124.001582 298 4430ft 94kts
23-Jun-17 13:13 49.167003 -124.038873 281 5130ft 94kts
23-Jun-17 13:14 49.168258 -124.078629 278 5830ft 93kts
23-Jun-17 13:15 49.167550 -124.117548 265 6530ft 92kts
23-Jun-17 13:16 49.161187 -124.154723 261 7223ft 89kts
23-Jun-17 13:17 49.154966 -124.190337 261 7917ft 84kts
23-Jun-17 13:18 49.149064 -124.223770 261 8465ft 92kts
23-Jun-17 13:19 49.141817 -124.271333 261 8203ft 130kts
23-Jun-17 13:20 49.131838 -124.326437 247 7718ft 139kts
23-Jun-17 13:21 49.101990 -124.362295 205 7503ft 136kts
23-Jun-17 13:22 49.068916 -124.387582 211 7504ft 127kts
23-Jun-17 13:23 49.038073 -124.411731 211 7507ft 123kts
23-Jun-17 13:24 49.007407 -124.435609 211 7506ft 124kts
23-Jun-17 13:25 48.975879 -124.460320 211 7508ft 134kts
23-Jun-17 13:26 48.941696 -124.485913 205 7502ft 141kts
23-Jun-17 13:27 48.904837 -124.506875 203 7502ft 141kts
23-Jun-17 13:28 48.868381 -124.527618 203 7498ft 141kts
23-Jun-17 13:29 48.831413 -124.547489 198 7498ft 141kts
23-Jun-17 13:30 48.793664 -124.563796 198 7498ft 141kts
23-Jun-17 13:31 48.755677 -124.577942 179 7485ft 142kts
23-Jun-17 13:32 48.716521 -124.572118 176 7479ft 140kts
23-Jun-17 13:33 48.678207 -124.565663 183 7471ft 137kts
23-Jun-17 13:34 48.640614 -124.562827 182 7463ft 134kts
23-Jun-17 13:35 48.603737 -124.559014 173 7461ft 134kts
23-Jun-17 13:36 48.567293 -124.546350 169 7462ft 135kts
23-Jun-17 13:37 48.531209 -124.531079 169 7491ft 135kts
23-Jun-17 13:38 48.495006 -124.515705 169 7490ft 135kts
23-Jun-17 13:39 48.459543 -124.500668 169 7489ft 135kts
23-Jun-17 13:40 48.423490 -124.485273 169 7489ft 135kts
23-Jun-17 13:41 48.391617 -124.453941 142 7490ft 139kts
23-Jun-17 13:42 48.362525 -124.415256 128 7487ft 141kts
23-Jun-17 13:43 48.338430 -124.369201 130 7564ft 135kts
23-Jun-17 13:44 48.315995 -124.326580 130 7941ft 126kts
23-Jun-17 13:45 48.297669 -124.292486 130 8267ft 125kts
23-Jun-17 13:46 48.275546 -124.252594 129 8662ft 124kts
23-Jun-17 13:47 48.252930 -124.213745 129 9060ft 123kts
23-Jun-17 13:48 48.230654 -124.174711 129 9461ft 123kts
23-Jun-17 13:49 48.204828 -124.135966 169 9474ft 138kts
23-Jun-17 13:50 48.173958 -124.101353 144 9470ft 141kts
23-Jun-17 13:51 48.142238 -124.066458 144 9466ft 142kts
23-Jun-17 13:52 48.110373 -124.032037 144 9474ft 141kts
23-Jun-17 13:53 48.077899 -123.998269 145 9473ft 142kts
23-Jun-17 13:54 48.045069 -123.965021 144 9481ft 142kts
23-Jun-17 13:55 48.012200 -123.932064 142 9488ft 142kts
23-Jun-17 13:56 47.980336 -123.897351 141 9497ft 141kts
23-Jun-17 13:57 47.948420 -123.863188 142 9505ft 141kts
23-Jun-17 13:58 47.916558 -123.829395 141 9511ft 140kts
23-Jun-17 13:59 47.885061 -123.796077 141 9507ft 140kts
23-Jun-17 14:00 47.853286 -123.762567 141 9507ft 140kts
23-Jun-17 14:01 47.821608 -123.729127 141 9507ft 140kts
23-Jun-17 14:02 47.792084 -123.698004 141 9508ft 140kts
23-Jun-17 14:03 47.760331 -123.664546 141 9508ft 140kts
23-Jun-17 14:04 47.728540 -123.631025 141 9508ft 140kts
23-Jun-17 14:05 47.695916 -123.599489 144 9508ft 140kts
23-Jun-17 14:06 47.662394 -123.569996 144 9507ft 140kts
23-Jun-17 14:07 47.628653 -123.540180 147 9487ft 141kts
23-Jun-17 14:08 47.593537 -123.508608 146 9145ft 151kts
23-Jun-17 14:09 47.556925 -123.475901 146 8654ft 154kts
23-Jun-17 14:10 47.520508 -123.442897 146 8156ft 153kts
23-Jun-17 14:11 47.484230 -123.410273 145 7658ft 151kts
23-Jun-17 14:12 47.456748 -123.385402 146 7272ft 150kts
23-Jun-17 14:13 47.421491 -123.353391 146 6775ft 148kts
23-Jun-17 14:14 47.386743 -123.321338 146 6280ft 148kts
23-Jun-17 14:15 47.352323 -123.288834 146 5784ft 147kts
23-Jun-17 14:16 47.318396 -123.257179 146 5480ft 138kts
23-Jun-17 14:17 47.286917 -123.228287 146 5498ft 132kts
23-Jun-17 14:18 47.254649 -123.198816 147 5228ft 143kts
23-Jun-17 14:19 47.219441 -123.170292 150 4735ft 144kts
23-Jun-17 14:20 47.184591 -123.142349 151 4238ft 137kts
23-Jun-17 14:21 47.155358 -123.116971 147 3704ft 114kts
23-Jun-17 14:22 47.129997 -123.090730 144 3501ft 108kts
23-Jun-17 14:23 47.105558 -123.066098 144 3505ft 106kts
23-Jun-17 14:24 47.081715 -123.039612 133 3326ft 110kts
23-Jun-17 14:25 47.057270 -123.009071 143 2790ft 119kts
23-Jun-17 14:26 47.029955 -122.982400 143 2214ft 120kts
23-Jun-17 14:27 47.004076 -122.955412 138 1656ft 107kts
23-Jun-17 14:28 46.985015 -122.932785 133 1216ft 86kts
23-Jun-17 14:29 46.962620 -122.927351 183 1320ft 78kts
23-Jun-17 14:30 46.951860 -122.911926 53 896ft 74kts
23-Jun-17 14:31 46.968450 -122.904877 13 207ft 34kts
23-Jun-17 14:32 46.974655 -122.902948 14 202ft 14kts
23-Jun-17 14:33 46.976626 -122.899586 141 199ft 0kts

Navigation Log

Ident Type
Flight plan parsing failed, navigation log unavailable